^^
WoodinvilleWX Historical Data
 
Daily Summary for April 19, 2019 Units:  English    Metric   Both
Daily Weekly Monthly Yearly Custom
  Current: High: Low: Average:
Temperature: 52.4 °F 55.1 °F 52.4 °F 54.1 °F
Dew Point: 50.4 °F 53.4 °F 50.4 °F 52.4 °F
Humidity: 93% 94% 93% 94%
Wind Speed: 1.0mph 3.0mph 0.0mph 0.4mph
Wind Gust: 1.0mph 6.0mph - -
WindESE - - SE
Pressure: 29.98 in 30.04 in 29.97 in -
Precipitation: 0.08 in      
Historical Graphs
 
 
Tabular Data for April 19, 2019
Time Temperature Dew Point Pressure Wind Wind Speed Wind Gust Humidity Rainfall Rate (Hourly)
00:04 54.5 °F 52.5 °F 30.04 in Calm   1.0 mph 93% 0.00 in
00:09 54.5 °F 52.5 °F 30.04 in Calm   2.0 mph 93% 0.00 in
00:14 54.5 °F 52.8 °F 30.04 in Calm   6.0 mph 94% 0.00 in
00:19 54.5 °F 52.8 °F 30.04 in Calm   1.0 mph 94% 0.00 in
00:24 54.4 °F 52.7 °F 30.04 in ESE 1.0 mph 2.0 mph 94% 0.00 in
00:29 54.4 °F 52.7 °F 30.03 in Calm   2.0 mph 94% 0.00 in
00:34 54.3 °F 52.6 °F 30.03 in Calm   4.0 mph 94% 0.00 in
00:39 54.3 °F 52.6 °F 30.03 in SSE 3.0 mph 5.0 mph 94% 0.00 in
00:44 54.4 °F 52.7 °F 30.03 in Calm   1.0 mph 94% 0.00 in
00:49 54.5 °F 52.5 °F 30.03 in Calm   6.0 mph 93% 0.00 in
00:54 54.5 °F 52.5 °F 30.03 in Calm   5.0 mph 93% 0.00 in
00:59 54.5 °F 52.5 °F 30.03 in Calm   2.0 mph 93% 0.00 in
01:04 54.5 °F 52.8 °F 30.03 in SE 3.0 mph 3.0 mph 94% 0.00 in
01:08 54.4 °F 52.7 °F 30.03 in Calm   1.0 mph 94% 0.00 in
01:14 54.4 °F 52.7 °F 30.02 in Calm   1.0 mph 94% 0.00 in
01:19 54.4 °F 52.7 °F 30.02 in Calm   2.0 mph 94% 0.00 in
01:24 54.4 °F 52.7 °F 30.02 in Calm   3.0 mph 94% 0.00 in
01:29 54.4 °F 52.7 °F 30.02 in Calm   3.0 mph 94% 0.00 in
01:34 54.4 °F 52.7 °F 30.02 in Calm   2.0 mph 94% 0.00 in
01:39 54.4 °F 52.7 °F 30.01 in SE 3.0 mph 6.0 mph 94% 0.00 in
01:44 54.5 °F 52.8 °F 30.01 in Calm   3.0 mph 94% 0.00 in
01:49 54.7 °F 53.0 °F 30.01 in SE 2.0 mph 3.0 mph 94% 0.00 in
01:54 54.8 °F 53.1 °F 30.00 in SE 1.0 mph 4.0 mph 94% 0.00 in
01:59 54.9 °F 53.2 °F 30.00 in SE 2.0 mph 4.0 mph 94% 0.00 in
02:04 54.9 °F 53.2 °F 30.00 in SSE 2.0 mph 4.0 mph 94% 0.00 in
02:09 54.9 °F 53.2 °F 30.00 in Calm   2.0 mph 94% 0.00 in
02:14 55.0 °F 53.3 °F 30.00 in SSE 1.0 mph 1.0 mph 94% 0.00 in
02:19 55.0 °F 53.3 °F 30.00 in Calm   5.0 mph 94% 0.00 in
02:24 55.0 °F 53.3 °F 30.00 in Calm   3.0 mph 94% 0.00 in
02:29 55.1 °F 53.1 °F 29.99 in Calm   1.0 mph 93% 0.00 in
02:34 55.1 °F 53.4 °F 29.99 in Calm     94% 0.00 in
02:39 55.1 °F 53.4 °F 29.99 in Calm     94% 0.00 in
02:44 54.9 °F 53.2 °F 30.00 in Calm   2.0 mph 94% 0.00 in
02:49 54.8 °F 53.1 °F 29.99 in Calm     94% 0.00 in
02:54 54.7 °F 53.0 °F 29.99 in Calm   1.0 mph 94% 0.00 in
02:59 54.7 °F 53.0 °F 29.98 in Calm   1.0 mph 94% 0.00 in
03:04 54.8 °F 53.1 °F 29.98 in Calm   4.0 mph 94% 0.00 in
03:09 54.8 °F 53.1 °F 29.98 in Calm     94% 0.00 in
03:14 54.7 °F 53.0 °F 29.98 in Calm   2.0 mph 94% 0.00 in
03:19 54.7 °F 53.0 °F 29.98 in Calm   1.0 mph 94% 0.00 in
03:24 54.7 °F 53.0 °F 29.98 in Calm   2.0 mph 94% 0.00 in
03:29 54.7 °F 53.0 °F 29.98 in Calm   3.0 mph 94% 0.00 in
03:34 54.7 °F 53.0 °F 29.98 in Calm   1.0 mph 94% 0.00 in
03:39 54.7 °F 53.0 °F 29.98 in Calm     94% 0.00 in
03:44 54.7 °F 53.0 °F 29.98 in Calm     94% 0.00 in
03:49 54.7 °F 53.0 °F 29.98 in Calm     94% 0.00 in
03:54 54.8 °F 53.1 °F 29.98 in Calm     94% 0.00 in
03:59 54.8 °F 53.1 °F 29.98 in Calm     94% 0.00 in
04:04 54.7 °F 53.0 °F 29.98 in Calm     94% 0.00 in
04:09 54.7 °F 53.0 °F 29.98 in Calm   4.0 mph 94% 0.00 in
04:14 54.7 °F 53.0 °F 29.99 in Calm   1.0 mph 94% 0.00 in
04:19 54.7 °F 53.0 °F 29.98 in Calm   4.0 mph 94% 0.00 in
04:24 54.6 °F 52.9 °F 29.98 in East 2.0 mph 3.0 mph 94% 0.00 in
04:29 54.6 °F 52.9 °F 29.98 in Calm   4.0 mph 94% 0.00 in
04:34 54.5 °F 52.8 °F 29.98 in West 2.0 mph 3.0 mph 94% 0.00 in
04:39 54.5 °F 52.8 °F 29.98 in Calm   1.0 mph 94% 0.00 in
04:44 54.4 °F 52.7 °F 29.98 in Calm   1.0 mph 94% 0.00 in
04:49 54.3 °F 52.6 °F 29.98 in Calm   1.0 mph 94% 0.00 in
04:54 54.3 °F 52.6 °F 29.98 in Calm   2.0 mph 94% 0.01 in
04:59 54.2 °F 52.5 °F 29.98 in Calm   1.0 mph 94% 0.02 in
05:04 54.1 °F 52.4 °F 29.99 in Calm   3.0 mph 94% 0.02 in
05:08 53.9 °F 52.2 °F 29.98 in Calm   4.0 mph 94% 0.02 in
05:13 53.8 °F 52.1 °F 29.98 in Calm   1.0 mph 94% 0.02 in
05:19 53.7 °F 52.0 °F 29.98 in Calm     94% 0.03 in
05:24 53.6 °F 51.9 °F 29.98 in Calm   1.0 mph 94% 0.03 in
05:29 53.6 °F 51.9 °F 29.98 in Calm     94% 0.03 in
05:34 53.5 °F 51.8 °F 29.99 in Calm   1.0 mph 94% 0.03 in
05:39 53.4 °F 51.7 °F 29.98 in Calm     94% 0.03 in
05:44 53.3 °F 51.6 °F 29.98 in SE 1.0 mph 2.0 mph 94% 0.03 in
05:49 53.2 °F 51.5 °F 29.99 in Calm     94% 0.03 in
05:54 53.2 °F 51.5 °F 29.98 in Calm   1.0 mph 94% 0.03 in
05:59 53.1 °F 51.4 °F 29.98 in Calm   1.0 mph 94% 0.02 in
06:04 53.0 °F 51.3 °F 29.98 in SE 1.0 mph 1.0 mph 94% 0.01 in
06:09 52.9 °F 51.2 °F 29.98 in Calm   2.0 mph 94% 0.02 in
06:14 52.9 °F 51.2 °F 29.98 in Calm   1.0 mph 94% 0.02 in
06:19 52.8 °F 51.1 °F 29.98 in SE 1.0 mph 2.0 mph 94% 0.02 in
06:24 52.7 °F 51.0 °F 29.98 in SSE 1.0 mph 4.0 mph 94% 0.01 in
06:29 52.6 °F 50.9 °F 29.98 in Calm   4.0 mph 94% 0.02 in
06:34 52.6 °F 50.9 °F 29.98 in Calm   2.0 mph 94% 0.03 in
06:39 52.6 °F 50.9 °F 29.98 in Calm   2.0 mph 94% 0.03 in
06:44 52.5 °F 50.8 °F 29.97 in South 1.0 mph 1.0 mph 94% 0.04 in
06:49 52.5 °F 50.8 °F 29.97 in SE 2.0 mph 3.0 mph 94% 0.04 in
06:54 52.5 °F 50.8 °F 29.97 in SSE 1.0 mph 6.0 mph 94% 0.04 in
06:59 52.5 °F 50.8 °F 29.98 in Calm   4.0 mph 94% 0.04 in
07:04 52.4 °F 50.7 °F 29.99 in ESE 1.0 mph 3.0 mph 94% 0.05 in
07:09 52.4 °F 50.7 °F 29.98 in Calm   2.0 mph 94% 0.04 in
07:14 52.4 °F 50.4 °F 29.98 in ESE 1.0 mph 1.0 mph 93% 0.04 in
Woodinville, Washington USA
Compliments of Weather Underground - 4 mb